createdAt,value
2022-10-10T00:00:12.750Z,79.54
2022-10-10T00:03:00.078Z,79.53
2022-10-10T00:05:26.914Z,79.92
2022-10-10T00:07:54.004Z,79.09
2022-10-10T00:10:21.305Z,79.27
2022-10-10T00:12:49.312Z,80.22
2022-10-10T00:15:16.600Z,79.26
2022-10-10T00:17:44.299Z,79.85
2022-10-10T00:20:12.007Z,79.95
2022-10-10T00:22:39.555Z,79.68
2022-10-10T00:25:07.504Z,80.18
2022-10-10T00:27:34.798Z,79.72
2022-10-10T00:30:02.302Z,79.20
2022-10-10T00:32:29.395Z,80.28
2022-10-10T00:34:56.349Z,79.63
2022-10-10T00:37:23.512Z,80.38
2022-10-10T00:39:50.452Z,79.91
2022-10-10T00:42:18.671Z,80.45
2022-10-10T00:44:46.386Z,79.15
2022-10-10T00:47:13.709Z,79.66
2022-10-10T00:49:42.388Z,79.60
2022-10-10T00:52:10.993Z,79.65
2022-10-10T00:54:39.543Z,79.94
2022-10-10T00:57:10.639Z,80.07
2022-10-10T00:59:39.139Z,79.97
2022-10-10T01:02:06.407Z,79.13
2022-10-10T01:04:45.239Z,79.23
2022-10-10T01:07:14.857Z,79.69
2022-10-10T01:09:43.219Z,79.55
2022-10-10T01:12:29.084Z,79.83
2022-10-10T01:15:06.795Z,80.54
2022-10-10T01:17:39.191Z,81.29
2022-10-10T01:20:23.464Z,79.77
2022-10-10T01:23:13.561Z,79.78
2022-10-10T01:25:40.409Z,79.71
2022-10-10T01:28:25.361Z,79.96
2022-10-10T01:30:52.287Z,79.59
2022-10-10T01:33:29.469Z,79.75
2022-10-10T01:36:01.838Z,79.58
2022-10-10T01:38:37.278Z,79.14
2022-10-10T01:41:33.463Z,80.00
2022-10-10T01:44:00.847Z,79.44
2022-10-10T01:46:27.691Z,80.48
2022-10-10T01:48:56.316Z,80.20
2022-10-10T01:51:26.296Z,80.19
2022-10-10T01:54:11.942Z,79.93
2022-10-10T01:56:48.067Z,80.85
2022-10-10T01:59:14.988Z,80.58
2022-10-10T02:01:51.014Z,80.43
2022-10-10T02:04:35.279Z,80.83
2022-10-10T02:07:06.713Z,81.20
2022-10-10T02:09:38.722Z,80.89
2022-10-10T02:12:07.275Z,80.57
2022-10-10T02:14:37.820Z,81.29
2022-10-10T02:17:08.191Z,81.66
2022-10-10T02:19:35.626Z,81.30
2022-10-10T02:22:03.152Z,81.01
2022-10-10T02:24:30.004Z,80.51
2022-10-10T02:27:02.485Z,81.05
2022-10-10T02:29:32.295Z,81.50
2022-10-10T02:31:59.421Z,81.43
2022-10-10T02:34:28.231Z,80.48
2022-10-10T02:37:00.431Z,80.48
2022-10-10T02:39:30.304Z,80.88
2022-10-10T02:41:57.244Z,81.82
2022-10-10T02:44:25.392Z,81.08
2022-10-10T02:46:52.420Z,81.52
2022-10-10T02:49:33.894Z,81.43
2022-10-10T02:52:01.215Z,82.02
2022-10-10T02:54:28.489Z,81.76
2022-10-10T02:56:55.757Z,82.27
2022-10-10T02:59:22.867Z,81.13
2022-10-10T03:01:49.861Z,81.75
2022-10-10T03:04:17.323Z,81.44
2022-10-10T03:06:44.325Z,81.75
2022-10-10T03:09:11.592Z,81.96
2022-10-10T03:11:38.545Z,81.18
2022-10-10T03:14:05.675Z,81.05
2022-10-10T03:16:32.495Z,81.71
2022-10-10T03:18:59.373Z,81.59
2022-10-10T03:21:26.444Z,81.71
2022-10-10T03:23:53.248Z,81.91
2022-10-10T03:26:21.065Z,82.16
2022-10-10T03:28:48.080Z,82.15
2022-10-10T03:31:15.221Z,82.34
2022-10-10T03:33:42.315Z,82.80
2022-10-10T03:36:09.382Z,82.17
2022-10-10T03:38:36.297Z,81.26
2022-10-10T03:41:03.552Z,81.78
2022-10-10T03:43:30.635Z,81.83
2022-10-10T03:45:57.673Z,82.34
2022-10-10T03:48:24.777Z,82.49
2022-10-10T03:50:51.860Z,82.41
2022-10-10T03:53:18.926Z,81.48
2022-10-10T03:55:46.019Z,81.99
2022-10-10T03:58:12.890Z,81.98
2022-10-10T04:00:39.991Z,82.33
2022-10-10T04:03:07.012Z,82.17
2022-10-10T04:05:36.388Z,82.16
2022-10-10T04:08:03.462Z,82.19
2022-10-10T04:10:30.881Z,81.93
2022-10-10T04:12:58.839Z,81.48
2022-10-10T04:15:26.039Z,81.96
2022-10-10T04:17:52.974Z,81.79
2022-10-10T04:20:20.099Z,81.56
2022-10-10T04:22:46.948Z,81.57
2022-10-10T04:25:14.074Z,81.64
2022-10-10T04:27:41.049Z,82.06
2022-10-10T04:30:08.372Z,81.69
2022-10-10T04:32:35.429Z,82.65
2022-10-10T04:35:02.678Z,82.27
2022-10-10T04:37:29.632Z,82.96
2022-10-10T04:39:56.749Z,82.55
2022-10-10T04:42:23.688Z,82.54
2022-10-10T04:44:50.875Z,82.15
2022-10-10T04:47:17.888Z,82.86
2022-10-10T04:49:45.162Z,82.60
2022-10-10T04:52:12.433Z,82.78
2022-10-10T04:54:39.879Z,82.64
2022-10-10T04:57:06.757Z,82.78
2022-10-10T04:59:34.063Z,83.39
2022-10-10T05:02:02.036Z,82.57
2022-10-10T05:04:29.314Z,82.81
2022-10-10T05:06:56.428Z,82.83
2022-10-10T05:09:23.545Z,82.95
2022-10-10T05:11:50.555Z,82.92
2022-10-10T05:14:17.634Z,83.70
2022-10-10T05:16:44.513Z,84.49
2022-10-10T05:19:11.728Z,83.78
2022-10-10T05:21:38.980Z,84.19
2022-10-10T05:24:06.217Z,83.70
2022-10-10T05:26:33.110Z,83.17
2022-10-10T05:29:01.735Z,83.54
2022-10-10T05:31:29.048Z,83.86
2022-10-10T05:33:56.284Z,83.73
2022-10-10T05:36:23.134Z,84.00
2022-10-10T05:38:50.552Z,83.95
2022-10-10T05:41:17.463Z,83.87
2022-10-10T05:43:44.613Z,83.44
2022-10-10T05:46:11.604Z,83.80
2022-10-10T05:48:38.796Z,83.44
2022-10-10T05:51:07.147Z,82.77
2022-10-10T05:53:34.293Z,82.52
2022-10-10T05:56:02.160Z,83.21
2022-10-10T05:58:29.400Z,84.16
2022-10-10T06:01:02.071Z,84.01
2022-10-10T06:03:29.217Z,85.25
2022-10-10T06:05:56.162Z,85.64
2022-10-10T06:08:23.288Z,85.63
2022-10-10T06:10:50.468Z,86.38
2022-10-10T06:13:23.838Z,85.38
2022-10-10T06:15:52.361Z,85.75
2022-10-10T06:18:19.757Z,84.44
2022-10-10T06:20:46.769Z,84.51
2022-10-10T06:23:13.962Z,84.94
2022-10-10T06:25:41.782Z,85.49
2022-10-10T06:28:10.045Z,85.68
2022-10-10T06:30:44.203Z,85.13
2022-10-10T06:33:12.127Z,85.35
2022-10-10T06:35:40.760Z,85.26
2022-10-10T06:38:07.916Z,86.06
2022-10-10T06:40:34.787Z,85.56
2022-10-10T06:43:02.075Z,85.65
2022-10-10T06:45:29.232Z,84.62
2022-10-10T06:47:56.292Z,85.06
2022-10-10T06:50:23.208Z,84.77
2022-10-10T06:52:50.642Z,85.28
2022-10-10T06:55:17.943Z,84.67
2022-10-10T06:57:45.296Z,83.81
2022-10-10T07:00:12.596Z,84.14
2022-10-10T07:02:41.093Z,83.40
2022-10-10T07:05:09.482Z,84.43
2022-10-10T07:07:36.627Z,83.73
2022-10-10T07:10:03.559Z,84.48
2022-10-10T07:12:35.724Z,84.13
2022-10-10T07:15:06.917Z,84.46
2022-10-10T07:17:34.019Z,84.10
2022-10-10T07:20:00.891Z,83.59
2022-10-10T07:22:27.965Z,82.63
2022-10-10T07:24:54.816Z,81.73
2022-10-10T07:27:22.183Z,81.98
2022-10-10T07:29:49.190Z,81.32
2022-10-10T07:32:16.267Z,80.30
2022-10-10T07:34:43.112Z,79.76
2022-10-10T07:37:10.244Z,78.61
2022-10-10T07:39:37.049Z,78.51
2022-10-10T07:42:04.123Z,77.39
2022-10-10T07:44:34.437Z,77.89
2022-10-10T07:47:02.039Z,77.17
2022-10-10T07:49:28.999Z,78.05
2022-10-10T07:52:00.447Z,78.34
2022-10-10T07:54:28.783Z,78.93
2022-10-10T07:56:56.024Z,78.58
2022-10-10T07:59:23.002Z,78.49
2022-10-10T08:01:50.263Z,77.26
2022-10-10T08:04:17.439Z,76.62
2022-10-10T08:06:44.668Z,75.28
2022-10-10T08:09:11.619Z,73.15
2022-10-10T08:11:38.720Z,69.60
2022-10-10T08:14:05.639Z,67.11
2022-10-10T08:16:32.836Z,64.08
2022-10-10T08:18:59.845Z,60.79
2022-10-10T08:21:27.131Z,58.85
2022-10-10T08:23:53.984Z,56.77
2022-10-10T08:26:21.747Z,56.36
2022-10-10T08:28:48.992Z,56.96
2022-10-10T08:31:18.006Z,55.70
2022-10-10T08:33:46.155Z,53.96
2022-10-10T08:36:14.680Z,52.23
2022-10-10T08:38:41.582Z,51.29
2022-10-10T08:41:10.679Z,50.11
2022-10-10T08:44:06.800Z,49.11
2022-10-10T08:46:39.875Z,48.33
2022-10-10T08:49:30.020Z,48.01
2022-10-10T08:52:00.279Z,47.65
2022-10-10T08:54:29.603Z,49.45
2022-10-10T08:56:59.599Z,47.03
2022-10-10T08:59:33.603Z,46.01
2022-10-10T09:02:18.078Z,45.58
2022-10-10T09:04:47.028Z,46.11
2022-10-10T09:07:33.007Z,45.47
2022-10-10T09:10:05.932Z,43.55
2022-10-10T09:12:33.020Z,43.00
2022-10-10T09:15:02.373Z,44.39
2022-10-10T09:17:35.365Z,45.30
2022-10-10T09:20:21.475Z,44.28
2022-10-10T09:22:53.672Z,47.18
2022-10-10T09:25:27.617Z,50.56
2022-10-10T09:27:58.771Z,51.40
2022-10-10T09:30:27.477Z,52.27
2022-10-10T09:33:09.588Z,52.11
2022-10-10T09:35:39.138Z,52.86
2022-10-10T09:38:18.105Z,52.43
2022-10-10T09:40:49.486Z,52.39
2022-10-10T09:43:19.784Z,52.70
2022-10-10T09:45:59.197Z,51.82
2022-10-10T09:48:31.643Z,50.58
2022-10-10T09:50:59.588Z,48.06
2022-10-10T09:53:26.687Z,46.94
2022-10-10T09:55:54.624Z,46.02
2022-10-10T09:58:40.143Z,46.41
2022-10-10T10:01:15.238Z,48.29
2022-10-10T10:03:42.629Z,48.59
2022-10-10T10:06:15.020Z,48.58
2022-10-10T10:08:42.849Z,49.63
2022-10-10T10:11:42.091Z,49.90
2022-10-10T10:14:29.325Z,49.75
2022-10-10T10:17:05.939Z,50.19
2022-10-10T10:19:37.158Z,50.94
2022-10-10T10:22:04.416Z,50.90
2022-10-10T10:24:36.303Z,52.65
2022-10-10T10:27:13.550Z,52.65
2022-10-10T10:29:46.396Z,52.67
2022-10-10T10:32:32.008Z,52.12
2022-10-10T10:35:08.141Z,52.44
2022-10-10T10:37:35.240Z,51.92
2022-10-10T10:40:21.068Z,51.82
2022-10-10T10:43:10.791Z,53.48
2022-10-10T10:45:40.753Z,53.01
2022-10-10T10:48:26.563Z,52.53
2022-10-10T10:51:05.238Z,52.69
2022-10-10T10:53:38.666Z,54.10
2022-10-10T10:56:13.822Z,53.53
2022-10-10T11:01:56.938Z,53.17
2022-10-10T11:05:23.583Z,54.08
2022-10-10T11:07:20.569Z,55.08
2022-10-10T11:09:51.093Z,54.03
2022-10-10T11:12:33.997Z,53.63
2022-10-10T11:15:03.177Z,53.18
2022-10-10T11:17:32.544Z,52.83
2022-10-10T11:20:03.429Z,53.69
2022-10-10T11:22:46.306Z,53.81
2022-10-10T11:25:16.706Z,54.12
2022-10-10T11:27:48.550Z,54.10
2022-10-10T11:30:36.399Z,53.88
2022-10-10T11:33:11.487Z,54.58
2022-10-10T11:35:38.616Z,53.47
2022-10-10T11:38:10.763Z,53.17
2022-10-10T11:40:45.272Z,52.46
2022-10-10T11:43:29.024Z,52.63
2022-10-10T11:46:03.229Z,53.44
2022-10-10T11:48:37.926Z,53.27
2022-10-10T11:51:16.163Z,53.52
2022-10-10T11:53:44.685Z,53.83
2022-10-10T11:56:21.744Z,53.98
2022-10-10T11:58:51.396Z,54.36
2022-10-10T12:01:27.507Z,54.60
2022-10-10T12:03:57.319Z,54.28
2022-10-10T12:06:40.936Z,53.93
2022-10-10T12:09:16.179Z,54.50
2022-10-10T12:11:56.358Z,52.93
2022-10-10T12:14:26.343Z,52.19
2022-10-10T12:16:53.591Z,52.62
2022-10-10T12:19:22.427Z,53.15
2022-10-10T12:21:52.028Z,53.74
2022-10-10T12:24:18.884Z,53.12
2022-10-10T12:26:54.960Z,54.14
2022-10-10T12:29:40.061Z,54.11
2022-10-10T12:32:11.108Z,53.16
2022-10-10T12:34:50.145Z,54.06
2022-10-10T12:37:23.521Z,54.64
2022-10-10T12:40:02.235Z,54.50
2022-10-10T12:42:59.919Z,54.32
2022-10-10T12:45:29.868Z,55.27
2022-10-10T12:48:06.428Z,54.83
2022-10-10T12:50:36.877Z,55.56
2022-10-10T12:53:03.940Z,56.09
2022-10-10T12:55:43.094Z,56.23
2022-10-10T12:58:26.508Z,55.45
2022-10-10T13:00:55.307Z,56.39
2022-10-10T13:03:36.497Z,55.20
2022-10-10T13:06:09.370Z,56.01
2022-10-10T13:08:37.611Z,56.19
2022-10-10T13:11:09.475Z,55.85
2022-10-10T13:13:36.640Z,56.14
2022-10-10T13:16:08.494Z,56.71
2022-10-10T13:18:43.237Z,56.65
2022-10-10T13:21:14.524Z,57.37
2022-10-10T13:23:43.732Z,55.55
2022-10-10T13:26:19.766Z,56.73
2022-10-10T13:28:47.002Z,56.12
2022-10-10T13:31:14.275Z,55.94
2022-10-10T13:33:41.535Z,56.23
2022-10-10T13:36:09.371Z,56.04
2022-10-10T13:38:36.528Z,56.88
2022-10-10T13:41:04.852Z,56.12
2022-10-10T13:43:33.292Z,55.97
2022-10-10T13:46:01.842Z,56.38
2022-10-10T13:48:35.088Z,56.37
2022-10-10T13:51:03.923Z,57.24
2022-10-10T13:53:51.322Z,57.79
2022-10-10T13:56:21.333Z,58.16
2022-10-10T13:58:53.083Z,58.00
2022-10-10T14:01:32.255Z,58.53
2022-10-10T14:04:05.303Z,58.05
2022-10-10T14:06:32.578Z,58.88
2022-10-10T14:09:07.197Z,58.73
2022-10-10T14:11:34.906Z,57.71
2022-10-10T14:14:08.315Z,58.54
2022-10-10T14:16:35.376Z,58.93
2022-10-10T14:19:02.214Z,58.65
2022-10-10T14:21:29.344Z,58.80
2022-10-10T14:23:56.139Z,59.09
2022-10-10T14:26:23.037Z,59.50
2022-10-10T14:28:50.339Z,58.91
2022-10-10T14:31:17.763Z,59.28
2022-10-10T14:33:46.154Z,59.24
2022-10-10T14:36:14.034Z,59.79
2022-10-10T14:38:41.638Z,60.23
2022-10-10T14:41:10.340Z,60.52
2022-10-10T14:43:38.736Z,60.41
2022-10-10T14:46:12.524Z,60.92
2022-10-10T14:48:39.671Z,60.97
2022-10-10T14:51:33.325Z,61.21
2022-10-10T14:54:12.048Z,60.99
2022-10-10T14:57:06.529Z,61.48
2022-10-10T14:59:46.248Z,61.08
2022-10-10T15:02:16.152Z,61.77
2022-10-10T15:04:43.273Z,61.85
2022-10-10T15:07:14.423Z,61.61
2022-10-10T15:09:52.494Z,61.84
2022-10-10T15:12:30.483Z,61.32
2022-10-10T15:15:00.526Z,61.77
2022-10-10T15:17:30.557Z,61.77
2022-10-10T15:19:57.652Z,61.49
2022-10-10T15:22:24.651Z,61.23
2022-10-10T15:24:51.483Z,61.42
2022-10-10T15:27:18.793Z,61.70
2022-10-10T15:29:45.673Z,61.51
2022-10-10T15:32:12.878Z,61.28
2022-10-10T15:34:39.843Z,62.00
2022-10-10T15:37:08.205Z,62.49
2022-10-10T15:39:35.903Z,62.51
2022-10-10T15:42:10.963Z,62.78
2022-10-10T15:44:45.763Z,63.11
2022-10-10T15:47:12.978Z,63.97
2022-10-10T15:49:40.085Z,63.73
2022-10-10T15:52:08.021Z,64.43
2022-10-10T15:54:35.160Z,64.13
2022-10-10T15:57:02.674Z,64.11
2022-10-10T15:59:29.589Z,64.26
2022-10-10T16:01:57.038Z,64.37
2022-10-10T16:04:25.337Z,64.76
2022-10-10T16:07:19.915Z,64.54
2022-10-10T16:09:40.877Z,64.40
2022-10-10T16:12:07.908Z,64.26
2022-10-10T16:14:35.147Z,64.51
2022-10-10T16:17:02.448Z,65.50
2022-10-10T16:19:29.718Z,65.83
2022-10-10T16:21:56.718Z,66.04
2022-10-10T16:24:23.849Z,67.04
2022-10-10T16:26:50.727Z,66.50
2022-10-10T16:29:18.842Z,66.90
2022-10-10T16:31:46.011Z,67.34
2022-10-10T16:34:16.054Z,67.15
2022-10-10T16:36:43.447Z,66.67
2022-10-10T16:39:10.541Z,66.92
2022-10-10T16:41:52.935Z,66.87
2022-10-10T16:44:19.895Z,67.20
2022-10-10T16:46:47.423Z,68.30
2022-10-10T16:49:16.898Z,68.43
2022-10-10T16:51:44.261Z,68.22
2022-10-10T16:54:11.685Z,68.38
2022-10-10T16:56:38.847Z,68.32
2022-10-10T16:59:05.676Z,69.05
2022-10-10T17:01:33.051Z,69.11
2022-10-10T17:04:00.581Z,69.24
2022-10-10T17:06:34.133Z,69.28
2022-10-10T17:09:02.992Z,69.48
2022-10-10T17:11:30.108Z,69.93
2022-10-10T17:13:56.939Z,70.19
2022-10-10T17:19:13.089Z,70.38
2022-10-10T17:21:40.494Z,71.14
2022-10-10T17:24:07.375Z,71.82
2022-10-10T17:26:34.328Z,73.25
2022-10-10T17:29:01.973Z,72.36
2022-10-10T17:31:28.949Z,72.66
2022-10-10T17:33:56.919Z,72.94
2022-10-10T17:36:26.583Z,73.66
2022-10-10T17:38:53.832Z,73.07
2022-10-10T17:41:21.200Z,73.37
2022-10-10T17:43:48.711Z,74.60
2022-10-10T17:49:06.053Z,74.70
2022-10-10T17:51:34.320Z,74.64
2022-10-10T17:54:01.304Z,75.93
2022-10-10T17:56:28.758Z,76.21
2022-10-10T17:58:55.895Z,75.94
2022-10-10T18:01:23.408Z,75.76
2022-10-10T18:03:51.406Z,76.17
2022-10-10T18:06:20.543Z,76.09
2022-10-10T18:08:51.571Z,75.50
2022-10-10T18:11:20.909Z,75.50
2022-10-10T18:13:47.811Z,75.89
2022-10-10T18:16:16.863Z,74.81
2022-10-10T18:18:50.437Z,74.26
2022-10-10T18:21:19.164Z,74.46
2022-10-10T18:23:46.369Z,74.66
2022-10-10T18:26:17.859Z,75.09
2022-10-10T18:28:44.878Z,74.93
2022-10-10T18:31:14.312Z,75.23
2022-10-10T18:33:41.872Z,75.24
2022-10-10T18:36:09.875Z,75.73
2022-10-10T18:38:38.128Z,75.28
2022-10-10T18:41:06.413Z,75.66
2022-10-10T18:43:33.816Z,76.02
2022-10-10T18:46:02.113Z,75.73
2022-10-10T18:48:29.639Z,75.60
2022-10-10T18:51:00.845Z,76.42
2022-10-10T18:53:28.761Z,77.61
2022-10-10T18:55:57.087Z,77.77
2022-10-10T18:58:24.269Z,77.86
2022-10-10T19:00:51.749Z,78.46
2022-10-10T19:03:18.941Z,78.67
2022-10-10T19:05:45.967Z,78.47
2022-10-10T19:08:14.203Z,78.64
2022-10-10T19:10:45.368Z,77.90
2022-10-10T19:13:12.945Z,79.45
2022-10-10T19:15:40.084Z,78.71
2022-10-10T19:18:07.704Z,79.81
2022-10-10T19:20:35.916Z,79.41
2022-10-10T19:23:03.196Z,79.47
2022-10-10T19:25:31.119Z,79.11
2022-10-10T19:27:58.432Z,79.50
2022-10-10T19:30:25.735Z,79.02
2022-10-10T19:32:52.693Z,79.53
2022-10-10T19:35:19.862Z,80.78
2022-10-10T19:37:46.915Z,80.38
2022-10-10T19:40:14.390Z,79.97
2022-10-10T19:42:41.547Z,79.56
2022-10-10T19:45:09.168Z,79.12
2022-10-10T19:47:36.569Z,78.95
2022-10-10T19:50:03.803Z,79.66
2022-10-10T19:52:30.727Z,79.03
2022-10-10T19:54:58.282Z,79.50
2022-10-10T19:57:25.279Z,77.73
2022-10-10T19:59:52.592Z,77.31
2022-10-10T20:02:19.951Z,77.39
2022-10-10T20:04:46.799Z,77.56
2022-10-10T20:07:14.057Z,78.40
2022-10-10T20:09:41.466Z,78.58
2022-10-10T20:12:08.593Z,80.05
2022-10-10T20:14:35.737Z,83.48
2022-10-10T20:17:03.617Z,88.61
2022-10-10T20:19:30.769Z,89.46
2022-10-10T20:21:57.892Z,89.11
2022-10-10T20:24:25.323Z,89.12
2022-10-10T20:26:52.392Z,88.43
2022-10-10T20:29:19.380Z,87.82
2022-10-10T20:31:46.940Z,87.26
2022-10-10T20:34:14.227Z,87.48
2022-10-10T20:36:41.682Z,87.49
2022-10-10T20:39:11.976Z,87.04
2022-10-10T20:41:40.453Z,87.60
2022-10-10T20:44:08.167Z,87.53
2022-10-10T20:46:36.948Z,87.50
2022-10-10T20:49:05.969Z,87.60
2022-10-10T20:51:33.431Z,87.68
2022-10-10T20:54:02.150Z,87.40
2022-10-10T20:56:29.948Z,87.54
2022-10-10T20:58:57.096Z,87.61
2022-10-10T21:01:26.761Z,87.55
2022-10-10T21:03:54.467Z,86.97
2022-10-10T21:06:26.462Z,87.38
2022-10-10T21:08:54.180Z,87.12
2022-10-10T21:11:22.462Z,87.97
2022-10-10T21:13:54.255Z,88.01
2022-10-10T21:16:23.199Z,87.17
2022-10-10T21:18:57.521Z,86.80
2022-10-10T21:21:31.041Z,87.01
2022-10-10T21:23:58.740Z,87.11
2022-10-10T21:26:27.340Z,87.53
2022-10-10T21:28:54.978Z,88.14
2022-10-10T21:31:26.580Z,88.11
2022-10-10T21:33:54.343Z,87.61
2022-10-10T21:36:21.822Z,86.85
2022-10-10T21:38:48.720Z,85.92
2022-10-10T21:41:19.568Z,85.12
2022-10-10T21:43:47.593Z,84.48
2022-10-10T21:46:16.530Z,84.07
2022-10-10T21:48:43.878Z,83.23
2022-10-10T21:51:10.786Z,83.12
2022-10-10T21:53:38.142Z,82.40
2022-10-10T21:56:06.963Z,82.20
2022-10-10T21:58:35.782Z,82.32
2022-10-10T22:01:09.746Z,81.57
2022-10-10T22:03:37.259Z,81.79
2022-10-10T22:06:08.597Z,82.05
2022-10-10T22:08:36.688Z,82.19
2022-10-10T22:11:05.292Z,82.46
2022-10-10T22:13:32.682Z,82.41
2022-10-10T22:15:59.666Z,81.78
2022-10-10T22:18:27.276Z,82.79
2022-10-10T22:20:54.150Z,82.79
2022-10-10T22:23:21.591Z,81.83
2022-10-10T22:25:49.908Z,82.22
2022-10-10T22:28:17.237Z,81.73
2022-10-10T22:30:44.544Z,81.84
2022-10-10T22:33:11.617Z,82.07
2022-10-10T22:35:38.580Z,83.31
2022-10-10T22:38:05.792Z,82.58
2022-10-10T22:40:32.722Z,82.67
2022-10-10T22:42:59.746Z,82.91
2022-10-10T22:45:26.914Z,82.83
2022-10-10T22:47:53.810Z,82.55
2022-10-10T22:50:20.766Z,82.54
2022-10-10T22:52:48.298Z,83.07
2022-10-10T22:55:18.500Z,82.86
2022-10-10T22:57:46.442Z,83.39
2022-10-10T23:00:13.846Z,83.39
2022-10-10T23:02:40.831Z,83.10
2022-10-10T23:05:08.655Z,82.77
2022-10-10T23:07:35.641Z,83.07
2022-10-10T23:10:02.563Z,83.47
2022-10-10T23:12:29.839Z,84.85
2022-10-10T23:14:56.757Z,84.54
2022-10-10T23:17:23.737Z,85.40
2022-10-10T23:19:50.883Z,85.11
2022-10-10T23:22:17.825Z,84.23
2022-10-10T23:24:45.071Z,83.37
2022-10-10T23:27:12.200Z,83.71
2022-10-10T23:29:39.066Z,84.08
2022-10-10T23:32:06.085Z,84.32
2022-10-10T23:34:33.377Z,84.66
2022-10-10T23:37:00.391Z,84.24
2022-10-10T23:39:27.344Z,84.46
2022-10-10T23:41:54.400Z,84.98
2022-10-10T23:44:21.255Z,85.33
2022-10-10T23:46:48.223Z,85.26
2022-10-10T23:49:15.284Z,86.40
2022-10-10T23:51:42.137Z,86.54
2022-10-10T23:54:09.031Z,86.10
2022-10-10T23:56:36.182Z,85.83
2022-10-10T23:59:03.125Z,85.68
